sensor_id;sensor_type;location;lat;lon;timestamp;P1;durP1;ratioP1;P2;durP2;ratioP2
47960;SDS011;33721;48.852;9.936;2022-09-13T00:00:36;10.77;;;4.70;;
47960;SDS011;33721;48.852;9.936;2022-09-13T00:03:03;7.45;;;4.50;;
47960;SDS011;33721;48.852;9.936;2022-09-13T00:05:29;13.23;;;4.88;;
47960;SDS011;33721;48.852;9.936;2022-09-13T00:07:55;7.35;;;4.38;;
47960;SDS011;33721;48.852;9.936;2022-09-13T00:10:22;9.32;;;4.70;;
47960;SDS011;33721;48.852;9.936;2022-09-13T00:12:48;9.02;;;4.50;;
47960;SDS011;33721;48.852;9.936;2022-09-13T00:15:14;10.65;;;4.50;;
47960;SDS011;33721;48.852;9.936;2022-09-13T00:17:39;8.85;;;4.53;;
47960;SDS011;33721;48.852;9.936;2022-09-13T00:20:05;12.07;;;4.80;;
47960;SDS011;33721;48.852;9.936;2022-09-13T00:22:32;12.70;;;4.40;;
47960;SDS011;33721;48.852;9.936;2022-09-13T00:24:58;9.50;;;4.60;;
47960;SDS011;33721;48.852;9.936;2022-09-13T00:27:24;8.75;;;4.53;;
47960;SDS011;33721;48.852;9.936;2022-09-13T00:29:50;8.52;;;4.55;;
47960;SDS011;33721;48.852;9.936;2022-09-13T00:32:16;8.57;;;4.55;;
47960;SDS011;33721;48.852;9.936;2022-09-13T00:34:41;8.65;;;5.03;;
47960;SDS011;33721;48.852;9.936;2022-09-13T00:37:07;7.95;;;4.95;;
47960;SDS011;33721;48.852;9.936;2022-09-13T00:39:33;8.52;;;5.35;;
47960;SDS011;33721;48.852;9.936;2022-09-13T00:41:59;12.80;;;6.15;;
47960;SDS011;33721;48.852;9.936;2022-09-13T00:48:14;10.93;;;5.72;;
47960;SDS011;33721;48.852;9.936;2022-09-13T00:50:30;10.40;;;5.75;;
47960;SDS011;33721;48.852;9.936;2022-09-13T00:55:42;9.10;;;5.13;;
47960;SDS011;33721;48.852;9.936;2022-09-13T00:58:21;8.77;;;4.72;;
47960;SDS011;33721;48.852;9.936;2022-09-13T01:00:53;9.00;;;4.88;;
47960;SDS011;33721;48.852;9.936;2022-09-13T01:03:21;9.13;;;4.78;;
47960;SDS011;33721;48.852;9.936;2022-09-13T01:05:53;11.95;;;4.85;;
47960;SDS011;33721;48.852;9.936;2022-09-13T01:08:22;7.90;;;4.57;;
47960;SDS011;33721;48.852;9.936;2022-09-13T01:10:49;8.32;;;4.90;;
47960;SDS011;33721;48.852;9.936;2022-09-13T01:13:19;10.02;;;5.35;;
47960;SDS011;33721;48.852;9.936;2022-09-13T01:15:47;10.05;;;5.20;;
47960;SDS011;33721;48.852;9.936;2022-09-13T01:18:13;8.13;;;4.93;;
47960;SDS011;33721;48.852;9.936;2022-09-13T01:20:51;8.30;;;5.05;;
47960;SDS011;33721;48.852;9.936;2022-09-13T01:28:51;15.30;;;5.32;;
47960;SDS011;33721;48.852;9.936;2022-09-13T01:42:48;9.98;;;5.80;;
47960;SDS011;33721;48.852;9.936;2022-09-13T01:48:18;8.77;;;5.07;;
47960;SDS011;33721;48.852;9.936;2022-09-13T01:50:52;9.57;;;5.25;;
47960;SDS011;33721;48.852;9.936;2022-09-13T01:53:28;9.77;;;5.30;;
47960;SDS011;33721;48.852;9.936;2022-09-13T02:03:51;9.10;;;5.22;;
47960;SDS011;33721;48.852;9.936;2022-09-13T02:06:20;9.13;;;4.72;;
47960;SDS011;33721;48.852;9.936;2022-09-13T02:09:08;8.30;;;4.80;;
47960;SDS011;33721;48.852;9.936;2022-09-13T02:11:38;8.77;;;5.15;;
47960;SDS011;33721;48.852;9.936;2022-09-13T02:14:11;10.30;;;5.15;;
47960;SDS011;33721;48.852;9.936;2022-09-13T02:19:21;9.60;;;4.82;;
47960;SDS011;33721;48.852;9.936;2022-09-13T02:21:53;15.75;;;5.70;;
47960;SDS011;33721;48.852;9.936;2022-09-13T02:24:30;10.35;;;5.53;;
47960;SDS011;33721;48.852;9.936;2022-09-13T02:26:58;13.57;;;5.22;;
47960;SDS011;33721;48.852;9.936;2022-09-13T02:29:29;10.15;;;5.18;;
47960;SDS011;33721;48.852;9.936;2022-09-13T02:31:59;10.10;;;6.03;;
47960;SDS011;33721;48.852;9.936;2022-09-13T02:34:33;8.35;;;5.20;;
47960;SDS011;33721;48.852;9.936;2022-09-13T02:37:04;10.65;;;6.25;;
47960;SDS011;33721;48.852;9.936;2022-09-13T02:39:33;12.98;;;5.57;;
47960;SDS011;33721;48.852;9.936;2022-09-13T02:55:24;12.60;;;5.72;;
47960;SDS011;33721;48.852;9.936;2022-09-13T02:57:59;11.05;;;6.13;;
47960;SDS011;33721;48.852;9.936;2022-09-13T03:00:30;15.07;;;6.07;;
47960;SDS011;33721;48.852;9.936;2022-09-13T03:02:57;10.50;;;5.53;;
47960;SDS011;33721;48.852;9.936;2022-09-13T03:05:26;13.90;;;6.13;;
47960;SDS011;33721;48.852;9.936;2022-09-13T03:07:52;10.63;;;5.63;;
47960;SDS011;33721;48.852;9.936;2022-09-13T03:10:19;11.88;;;5.90;;
47960;SDS011;33721;48.852;9.936;2022-09-13T03:18:04;12.00;;;5.57;;
47960;SDS011;33721;48.852;9.936;2022-09-13T03:31:20;10.13;;;4.65;;
47960;SDS011;33721;48.852;9.936;2022-09-13T03:33:57;6.93;;;4.10;;
47960;SDS011;33721;48.852;9.936;2022-09-13T03:41:32;9.07;;;4.60;;
47960;SDS011;33721;48.852;9.936;2022-09-13T03:44:04;8.82;;;4.97;;
47960;SDS011;33721;48.852;9.936;2022-09-13T03:46:34;7.50;;;4.53;;
47960;SDS011;33721;48.852;9.936;2022-09-13T03:49:12;11.02;;;4.70;;
47960;SDS011;33721;48.852;9.936;2022-09-13T03:51:40;10.25;;;5.07;;
47960;SDS011;33721;48.852;9.936;2022-09-13T03:54:09;7.32;;;4.70;;
47960;SDS011;33721;48.852;9.936;2022-09-13T03:59:54;11.23;;;4.80;;
47960;SDS011;33721;48.852;9.936;2022-09-13T04:02:22;11.68;;;5.10;;
47960;SDS011;33721;48.852;9.936;2022-09-13T04:04:49;10.00;;;4.90;;
47960;SDS011;33721;48.852;9.936;2022-09-13T04:07:16;13.52;;;4.13;;
47960;SDS011;33721;48.852;9.936;2022-09-13T04:09:46;9.13;;;4.95;;
47960;SDS011;33721;48.852;9.936;2022-09-13T04:12:12;12.93;;;5.32;;
47960;SDS011;33721;48.852;9.936;2022-09-13T04:14:39;9.27;;;4.68;;
47960;SDS011;33721;48.852;9.936;2022-09-13T04:17:06;9.38;;;5.15;;
47960;SDS011;33721;48.852;9.936;2022-09-13T04:19:32;9.93;;;4.65;;
47960;SDS011;33721;48.852;9.936;2022-09-13T04:21:58;9.80;;;4.97;;
47960;SDS011;33721;48.852;9.936;2022-09-13T04:24:25;8.65;;;4.30;;
47960;SDS011;33721;48.852;9.936;2022-09-13T04:26:52;9.50;;;4.65;;
47960;SDS011;33721;48.852;9.936;2022-09-13T04:29:19;9.35;;;5.50;;
47960;SDS011;33721;48.852;9.936;2022-09-13T04:31:46;9.15;;;5.43;;
47960;SDS011;33721;48.852;9.936;2022-09-13T04:34:12;8.85;;;4.78;;
47960;SDS011;33721;48.852;9.936;2022-09-13T04:36:39;10.13;;;5.03;;
47960;SDS011;33721;48.852;9.936;2022-09-13T04:39:05;9.55;;;4.68;;
47960;SDS011;33721;48.852;9.936;2022-09-13T04:41:31;12.38;;;3.70;;
47960;SDS011;33721;48.852;9.936;2022-09-13T04:43:59;9.98;;;4.30;;
47960;SDS011;33721;48.852;9.936;2022-09-13T04:46:26;12.30;;;5.00;;
47960;SDS011;33721;48.852;9.936;2022-09-13T04:48:52;11.40;;;5.20;;
47960;SDS011;33721;48.852;9.936;2022-09-13T04:51:18;7.97;;;4.70;;
47960;SDS011;33721;48.852;9.936;2022-09-13T04:53:45;9.05;;;4.55;;
47960;SDS011;33721;48.852;9.936;2022-09-13T04:56:16;9.40;;;5.20;;
47960;SDS011;33721;48.852;9.936;2022-09-13T04:58:43;11.93;;;4.75;;
47960;SDS011;33721;48.852;9.936;2022-09-13T05:01:09;13.38;;;5.22;;
47960;SDS011;33721;48.852;9.936;2022-09-13T05:03:35;9.18;;;5.40;;
47960;SDS011;33721;48.852;9.936;2022-09-13T05:06:14;9.77;;;5.38;;
47960;SDS011;33721;48.852;9.936;2022-09-13T05:08:43;13.75;;;5.35;;
47960;SDS011;33721;48.852;9.936;2022-09-13T05:13:39;6.95;;;4.35;;
47960;SDS011;33721;48.852;9.936;2022-09-13T05:16:06;10.98;;;4.70;;
47960;SDS011;33721;48.852;9.936;2022-09-13T05:18:33;8.63;;;4.53;;
47960;SDS011;33721;48.852;9.936;2022-09-13T05:21:01;10.85;;;4.70;;
47960;SDS011;33721;48.852;9.936;2022-09-13T05:23:29;10.60;;;5.25;;
47960;SDS011;33721;48.852;9.936;2022-09-13T05:25:56;9.20;;;5.50;;
47960;SDS011;33721;48.852;9.936;2022-09-13T05:28:23;11.65;;;5.22;;
47960;SDS011;33721;48.852;9.936;2022-09-13T05:30:56;8.15;;;4.88;;
47960;SDS011;33721;48.852;9.936;2022-09-13T05:33:23;15.77;;;5.30;;
47960;SDS011;33721;48.852;9.936;2022-09-13T05:35:49;9.77;;;5.15;;
47960;SDS011;33721;48.852;9.936;2022-09-13T05:38:15;12.18;;;5.30;;
47960;SDS011;33721;48.852;9.936;2022-09-13T05:40:41;10.30;;;5.63;;
47960;SDS011;33721;48.852;9.936;2022-09-13T05:43:07;12.02;;;5.28;;
47960;SDS011;33721;48.852;9.936;2022-09-13T05:45:32;12.55;;;5.50;;
47960;SDS011;33721;48.852;9.936;2022-09-13T05:47:58;8.38;;;4.40;;
47960;SDS011;33721;48.852;9.936;2022-09-13T05:50:24;7.72;;;4.80;;
47960;SDS011;33721;48.852;9.936;2022-09-13T05:52:53;10.30;;;4.95;;
47960;SDS011;33721;48.852;9.936;2022-09-13T05:55:19;11.27;;;5.40;;
47960;SDS011;33721;48.852;9.936;2022-09-13T05:57:46;8.98;;;5.35;;
47960;SDS011;33721;48.852;9.936;2022-09-13T06:00:12;13.02;;;6.20;;
47960;SDS011;33721;48.852;9.936;2022-09-13T06:02:39;10.88;;;6.00;;
47960;SDS011;33721;48.852;9.936;2022-09-13T06:05:05;13.93;;;5.45;;
47960;SDS011;33721;48.852;9.936;2022-09-13T06:07:34;11.80;;;4.97;;
47960;SDS011;33721;48.852;9.936;2022-09-13T06:10:01;10.63;;;5.22;;
47960;SDS011;33721;48.852;9.936;2022-09-13T06:12:29;10.18;;;4.82;;
47960;SDS011;33721;48.852;9.936;2022-09-13T06:14:54;10.05;;;4.88;;
47960;SDS011;33721;48.852;9.936;2022-09-13T06:17:20;9.13;;;4.40;;
47960;SDS011;33721;48.852;9.936;2022-09-13T06:19:45;7.93;;;4.10;;
47960;SDS011;33721;48.852;9.936;2022-09-13T06:22:11;13.18;;;5.20;;
47960;SDS011;33721;48.852;9.936;2022-09-13T06:24:37;7.03;;;4.22;;
47960;SDS011;33721;48.852;9.936;2022-09-13T06:27:02;7.97;;;4.38;;
47960;SDS011;33721;48.852;9.936;2022-09-13T06:29:28;10.10;;;5.03;;
47960;SDS011;33721;48.852;9.936;2022-09-13T06:31:54;7.30;;;4.60;;
47960;SDS011;33721;48.852;9.936;2022-09-13T06:34:20;7.75;;;4.80;;
47960;SDS011;33721;48.852;9.936;2022-09-13T06:36:45;10.65;;;4.78;;
47960;SDS011;33721;48.852;9.936;2022-09-13T06:39:11;10.23;;;4.60;;
47960;SDS011;33721;48.852;9.936;2022-09-13T06:41:37;7.53;;;4.70;;
47960;SDS011;33721;48.852;9.936;2022-09-13T06:44:03;8.98;;;4.85;;
47960;SDS011;33721;48.852;9.936;2022-09-13T06:46:30;8.77;;;5.47;;
47960;SDS011;33721;48.852;9.936;2022-09-13T06:49:04;9.10;;;4.63;;
47960;SDS011;33721;48.852;9.936;2022-09-13T06:51:31;8.82;;;5.22;;
47960;SDS011;33721;48.852;9.936;2022-09-13T06:53:57;8.25;;;4.75;;
47960;SDS011;33721;48.852;9.936;2022-09-13T06:56:25;9.73;;;4.90;;
47960;SDS011;33721;48.852;9.936;2022-09-13T06:58:57;12.80;;;4.80;;
47960;SDS011;33721;48.852;9.936;2022-09-13T07:01:28;7.75;;;4.45;;
47960;SDS011;33721;48.852;9.936;2022-09-13T07:03:59;12.20;;;5.18;;
47960;SDS011;33721;48.852;9.936;2022-09-13T07:06:28;7.38;;;4.40;;
47960;SDS011;33721;48.852;9.936;2022-09-13T07:08:56;10.85;;;5.05;;
47960;SDS011;33721;48.852;9.936;2022-09-13T07:11:24;13.73;;;6.38;;
47960;SDS011;33721;48.852;9.936;2022-09-13T07:13:53;11.20;;;6.65;;
47960;SDS011;33721;48.852;9.936;2022-09-13T07:16:21;14.45;;;5.25;;
47960;SDS011;33721;48.852;9.936;2022-09-13T07:18:52;9.63;;;5.35;;
47960;SDS011;33721;48.852;9.936;2022-09-13T07:21:18;8.25;;;5.30;;
47960;SDS011;33721;48.852;9.936;2022-09-13T07:23:44;12.73;;;5.88;;
47960;SDS011;33721;48.852;9.936;2022-09-13T07:26:10;9.07;;;5.05;;
47960;SDS011;33721;48.852;9.936;2022-09-13T07:28:38;10.43;;;5.22;;
47960;SDS011;33721;48.852;9.936;2022-09-13T07:33:46;8.57;;;5.53;;
47960;SDS011;33721;48.852;9.936;2022-09-13T07:36:16;14.77;;;5.55;;
47960;SDS011;33721;48.852;9.936;2022-09-13T07:38:42;18.85;;;6.20;;
47960;SDS011;33721;48.852;9.936;2022-09-13T07:41:12;11.77;;;6.03;;
47960;SDS011;33721;48.852;9.936;2022-09-13T07:43:40;12.45;;;6.38;;
47960;SDS011;33721;48.852;9.936;2022-09-13T07:46:06;13.15;;;6.50;;
47960;SDS011;33721;48.852;9.936;2022-09-13T07:48:37;11.40;;;6.32;;
47960;SDS011;33721;48.852;9.936;2022-09-13T07:51:05;11.15;;;5.35;;
47960;SDS011;33721;48.852;9.936;2022-09-13T07:53:32;11.95;;;5.95;;
47960;SDS011;33721;48.852;9.936;2022-09-13T07:56:03;11.63;;;5.93;;
47960;SDS011;33721;48.852;9.936;2022-09-13T07:58:31;10.98;;;5.93;;
47960;SDS011;33721;48.852;9.936;2022-09-13T08:01:05;9.77;;;5.43;;
47960;SDS011;33721;48.852;9.936;2022-09-13T08:03:36;12.23;;;6.47;;
47960;SDS011;33721;48.852;9.936;2022-09-13T08:06:03;13.13;;;5.80;;
47960;SDS011;33721;48.852;9.936;2022-09-13T08:08:30;8.50;;;5.55;;
47960;SDS011;33721;48.852;9.936;2022-09-13T08:10:57;9.90;;;5.22;;
47960;SDS011;33721;48.852;9.936;2022-09-13T08:13:23;8.60;;;4.85;;
47960;SDS011;33721;48.852;9.936;2022-09-13T08:15:49;9.13;;;4.90;;
47960;SDS011;33721;48.852;9.936;2022-09-13T08:18:15;8.48;;;4.68;;
47960;SDS011;33721;48.852;9.936;2022-09-13T08:20:42;14.10;;;5.15;;
47960;SDS011;33721;48.852;9.936;2022-09-13T08:23:08;9.73;;;5.05;;
47960;SDS011;33721;48.852;9.936;2022-09-13T08:25:35;8.05;;;4.40;;
47960;SDS011;33721;48.852;9.936;2022-09-13T08:28:09;6.32;;;4.32;;
47960;SDS011;33721;48.852;9.936;2022-09-13T08:30:42;10.18;;;4.05;;
47960;SDS011;33721;48.852;9.936;2022-09-13T08:33:08;7.90;;;4.40;;
47960;SDS011;33721;48.852;9.936;2022-09-13T08:35:35;10.23;;;5.05;;
47960;SDS011;33721;48.852;9.936;2022-09-13T08:38:02;11.32;;;4.70;;
47960;SDS011;33721;48.852;9.936;2022-09-13T08:40:30;8.90;;;4.47;;
47960;SDS011;33721;48.852;9.936;2022-09-13T08:45:40;9.93;;;4.75;;
47960;SDS011;33721;48.852;9.936;2022-09-13T08:48:15;6.68;;;3.13;;
47960;SDS011;33721;48.852;9.936;2022-09-13T08:50:45;6.25;;;3.50;;
47960;SDS011;33721;48.852;9.936;2022-09-13T09:01:07;7.30;;;3.40;;
47960;SDS011;33721;48.852;9.936;2022-09-13T09:06:56;9.07;;;3.10;;
47960;SDS011;33721;48.852;9.936;2022-09-13T09:09:45;5.50;;;2.88;;
47960;SDS011;33721;48.852;9.936;2022-09-13T09:12:55;3.92;;;3.10;;
47960;SDS011;33721;48.852;9.936;2022-09-13T09:17:42;7.72;;;2.70;;
47960;SDS011;33721;48.852;9.936;2022-09-13T09:22:56;3.60;;;2.60;;
47960;SDS011;33721;48.852;9.936;2022-09-13T09:25:28;5.90;;;2.75;;
47960;SDS011;33721;48.852;9.936;2022-09-13T09:27:56;5.40;;;2.58;;
47960;SDS011;33721;48.852;9.936;2022-09-13T09:30:23;4.55;;;2.75;;
47960;SDS011;33721;48.852;9.936;2022-09-13T09:40:59;6.43;;;2.45;;
47960;SDS011;33721;48.852;9.936;2022-09-13T09:43:38;4.72;;;2.80;;
47960;SDS011;33721;48.852;9.936;2022-09-13T09:46:31;7.70;;;2.88;;
47960;SDS011;33721;48.852;9.936;2022-09-13T09:49:04;3.60;;;2.22;;
47960;SDS011;33721;48.852;9.936;2022-09-13T09:51:57;3.10;;;2.50;;
47960;SDS011;33721;48.852;9.936;2022-09-13T09:54:25;4.82;;;2.30;;
47960;SDS011;33721;48.852;9.936;2022-09-13T09:56:54;5.20;;;2.50;;
47960;SDS011;33721;48.852;9.936;2022-09-13T09:59:23;4.43;;;2.60;;
47960;SDS011;33721;48.852;9.936;2022-09-13T10:01:51;10.25;;;2.30;;
47960;SDS011;33721;48.852;9.936;2022-09-13T10:04:20;5.13;;;2.47;;
47960;SDS011;33721;48.852;9.936;2022-09-13T10:06:46;4.47;;;2.33;;
47960;SDS011;33721;48.852;9.936;2022-09-13T10:09:18;7.15;;;3.22;;
47960;SDS011;33721;48.852;9.936;2022-09-13T10:11:49;4.03;;;2.38;;
47960;SDS011;33721;48.852;9.936;2022-09-13T10:14:38;2.72;;;2.13;;
47960;SDS011;33721;48.852;9.936;2022-09-13T10:17:39;6.85;;;2.67;;
47960;SDS011;33721;48.852;9.936;2022-09-13T10:20:04;6.03;;;2.25;;
47960;SDS011;33721;48.852;9.936;2022-09-13T10:22:45;8.68;;;2.08;;
47960;SDS011;33721;48.852;9.936;2022-09-13T10:25:39;5.32;;;2.42;;
47960;SDS011;33721;48.852;9.936;2022-09-13T10:28:12;4.00;;;2.20;;
47960;SDS011;33721;48.852;9.936;2022-09-13T10:30:46;3.83;;;2.15;;
47960;SDS011;33721;48.852;9.936;2022-09-13T10:36:00;3.53;;;2.17;;
47960;SDS011;33721;48.852;9.936;2022-09-13T10:38:31;5.18;;;2.30;;
47960;SDS011;33721;48.852;9.936;2022-09-13T10:40:57;8.80;;;2.80;;
47960;SDS011;33721;48.852;9.936;2022-09-13T10:43:27;4.68;;;2.45;;
47960;SDS011;33721;48.852;9.936;2022-09-13T10:45:54;3.50;;;2.08;;
47960;SDS011;33721;48.852;9.936;2022-09-13T10:48:21;6.28;;;2.25;;
47960;SDS011;33721;48.852;9.936;2022-09-13T10:51:00;5.38;;;2.17;;
47960;SDS011;33721;48.852;9.936;2022-09-13T10:56:18;6.30;;;2.55;;
47960;SDS011;33721;48.852;9.936;2022-09-13T10:58:45;7.47;;;2.20;;
47960;SDS011;33721;48.852;9.936;2022-09-13T11:01:12;3.15;;;1.67;;
47960;SDS011;33721;48.852;9.936;2022-09-13T11:09:42;2.15;;;1.88;;
47960;SDS011;33721;48.852;9.936;2022-09-13T11:15:06;3.47;;;2.05;;
47960;SDS011;33721;48.852;9.936;2022-09-13T11:20:29;4.07;;;1.85;;
47960;SDS011;33721;48.852;9.936;2022-09-13T11:24:01;6.32;;;2.10;;
47960;SDS011;33721;48.852;9.936;2022-09-13T11:26:45;3.15;;;2.00;;
47960;SDS011;33721;48.852;9.936;2022-09-13T11:29:32;5.20;;;2.07;;
47960;SDS011;33721;48.852;9.936;2022-09-13T11:32:25;2.60;;;1.90;;
47960;SDS011;33721;48.852;9.936;2022-09-13T11:46:02;3.30;;;1.88;;
47960;SDS011;33721;48.852;9.936;2022-09-13T11:54:33;1.92;;;1.50;;
47960;SDS011;33721;48.852;9.936;2022-09-13T11:57:29;2.30;;;1.40;;
47960;SDS011;33721;48.852;9.936;2022-09-13T12:00:04;3.53;;;1.55;;
47960;SDS011;33721;48.852;9.936;2022-09-13T12:05:30;2.20;;;1.42;;
47960;SDS011;33721;48.852;9.936;2022-09-13T12:10:41;2.67;;;1.50;;
47960;SDS011;33721;48.852;9.936;2022-09-13T12:13:14;2.08;;;1.77;;
47960;SDS011;33721;48.852;9.936;2022-09-13T12:16:05;2.92;;;1.70;;
47960;SDS011;33721;48.852;9.936;2022-09-13T12:18:35;2.67;;;1.75;;
47960;SDS011;33721;48.852;9.936;2022-09-13T12:21:10;2.03;;;1.40;;
47960;SDS011;33721;48.852;9.936;2022-09-13T12:23:42;5.20;;;1.67;;
47960;SDS011;33721;48.852;9.936;2022-09-13T12:26:20;4.15;;;1.75;;
47960;SDS011;33721;48.852;9.936;2022-09-13T12:28:55;2.85;;;1.73;;
47960;SDS011;33721;48.852;9.936;2022-09-13T12:31:27;3.67;;;1.90;;
47960;SDS011;33721;48.852;9.936;2022-09-13T12:33:55;2.17;;;1.40;;
47960;SDS011;33721;48.852;9.936;2022-09-13T12:50:17;2.63;;;1.30;;
47960;SDS011;33721;48.852;9.936;2022-09-13T12:59:08;1.90;;;1.20;;
47960;SDS011;33721;48.852;9.936;2022-09-13T13:01:49;2.05;;;1.10;;
47960;SDS011;33721;48.852;9.936;2022-09-13T13:04:19;2.00;;;1.00;;
47960;SDS011;33721;48.852;9.936;2022-09-13T13:06:56;1.98;;;1.00;;
47960;SDS011;33721;48.852;9.936;2022-09-13T13:11:48;1.17;;;0.80;;
47960;SDS011;33721;48.852;9.936;2022-09-13T13:14:30;1.40;;;0.80;;
47960;SDS011;33721;48.852;9.936;2022-09-13T13:22:49;1.50;;;0.80;;
47960;SDS011;33721;48.852;9.936;2022-09-13T13:27:57;2.35;;;1.00;;
47960;SDS011;33721;48.852;9.936;2022-09-13T13:30:39;4.03;;;1.00;;
47960;SDS011;33721;48.852;9.936;2022-09-13T13:33:12;1.27;;;0.80;;
47960;SDS011;33721;48.852;9.936;2022-09-13T13:35:44;2.10;;;0.95;;
47960;SDS011;33721;48.852;9.936;2022-09-13T13:38:14;3.25;;;0.95;;
47960;SDS011;33721;48.852;9.936;2022-09-13T13:40:52;1.67;;;1.00;;
47960;SDS011;33721;48.852;9.936;2022-09-13T13:43:32;1.60;;;1.00;;
47960;SDS011;33721;48.852;9.936;2022-09-13T13:46:43;1.10;;;0.93;;
47960;SDS011;33721;48.852;9.936;2022-09-13T13:48:49;1.40;;;0.95;;
47960;SDS011;33721;48.852;9.936;2022-09-13T13:53:44;0.90;;;0.80;;
47960;SDS011;33721;48.852;9.936;2022-09-13T13:56:21;1.25;;;0.70;;
47960;SDS011;33721;48.852;9.936;2022-09-13T14:01:29;1.90;;;0.80;;
47960;SDS011;33721;48.852;9.936;2022-09-13T14:06:54;0.93;;;0.80;;
47960;SDS011;33721;48.852;9.936;2022-09-13T14:10:02;1.02;;;0.82;;
47960;SDS011;33721;48.852;9.936;2022-09-13T14:18:22;2.53;;;0.80;;
47960;SDS011;33721;48.852;9.936;2022-09-13T14:21:23;1.42;;;0.60;;
47960;SDS011;33721;48.852;9.936;2022-09-13T14:23:54;0.85;;;0.40;;
47960;SDS011;33721;48.852;9.936;2022-09-13T14:26:52;1.45;;;0.57;;
47960;SDS011;33721;48.852;9.936;2022-09-13T14:29:22;1.67;;;0.70;;
47960;SDS011;33721;48.852;9.936;2022-09-13T14:31:53;0.50;;;0.50;;
47960;SDS011;33721;48.852;9.936;2022-09-13T14:34:27;0.63;;;0.50;;
47960;SDS011;33721;48.852;9.936;2022-09-13T14:36:59;0.55;;;0.50;;
47960;SDS011;33721;48.852;9.936;2022-09-13T14:39:27;0.75;;;0.50;;
47960;SDS011;33721;48.852;9.936;2022-09-13T14:44:47;2.10;;;0.50;;
47960;SDS011;33721;48.852;9.936;2022-09-13T14:47:27;2.63;;;0.45;;
47960;SDS011;33721;48.852;9.936;2022-09-13T14:50:02;0.60;;;0.40;;
47960;SDS011;33721;48.852;9.936;2022-09-13T14:52:37;0.50;;;0.32;;
47960;SDS011;33721;48.852;9.936;2022-09-13T14:55:15;1.17;;;0.47;;
47960;SDS011;33721;48.852;9.936;2022-09-13T14:57:50;0.75;;;0.50;;
47960;SDS011;33721;48.852;9.936;2022-09-13T15:00:20;0.68;;;0.60;;
47960;SDS011;33721;48.852;9.936;2022-09-13T15:02:48;0.73;;;0.50;;
47960;SDS011;33721;48.852;9.936;2022-09-13T15:05:23;2.55;;;0.80;;
47960;SDS011;33721;48.852;9.936;2022-09-13T15:07:51;4.45;;;1.63;;
47960;SDS011;33721;48.852;9.936;2022-09-13T15:17:59;1.98;;;1.10;;
47960;SDS011;33721;48.852;9.936;2022-09-13T15:21:14;1.85;;;1.33;;
47960;SDS011;33721;48.852;9.936;2022-09-13T15:23:29;2.03;;;1.38;;
47960;SDS011;33721;48.852;9.936;2022-09-13T15:28:35;6.38;;;1.40;;
47960;SDS011;33721;48.852;9.936;2022-09-13T15:31:28;1.65;;;1.30;;
47960;SDS011;33721;48.852;9.936;2022-09-13T15:34:11;2.03;;;1.40;;
47960;SDS011;33721;48.852;9.936;2022-09-13T15:36:45;2.50;;;1.58;;
47960;SDS011;33721;48.852;9.936;2022-09-13T15:39:16;2.58;;;1.50;;
47960;SDS011;33721;48.852;9.936;2022-09-13T15:41:51;2.92;;;1.30;;
47960;SDS011;33721;48.852;9.936;2022-09-13T15:44:18;1.10;;;1.00;;
47960;SDS011;33721;48.852;9.936;2022-09-13T15:46:54;1.33;;;0.93;;
47960;SDS011;33721;48.852;9.936;2022-09-13T15:49:22;2.00;;;0.70;;
47960;SDS011;33721;48.852;9.936;2022-09-13T15:51:52;1.55;;;0.90;;
47960;SDS011;33721;48.852;9.936;2022-09-13T15:54:19;11.18;;;0.80;;
47960;SDS011;33721;48.852;9.936;2022-09-13T15:56:47;2.60;;;0.93;;
47960;SDS011;33721;48.852;9.936;2022-09-13T15:59:16;1.75;;;0.93;;
47960;SDS011;33721;48.852;9.936;2022-09-13T16:01:43;1.70;;;1.05;;
47960;SDS011;33721;48.852;9.936;2022-09-13T16:04:11;3.75;;;1.08;;
47960;SDS011;33721;48.852;9.936;2022-09-13T16:06:37;3.55;;;0.93;;
47960;SDS011;33721;48.852;9.936;2022-09-13T16:09:10;2.88;;;1.02;;
47960;SDS011;33721;48.852;9.936;2022-09-13T16:11:44;0.82;;;0.80;;
47960;SDS011;33721;48.852;9.936;2022-09-13T16:14:10;4.45;;;0.90;;
47960;SDS011;33721;48.852;9.936;2022-09-13T16:16:36;1.33;;;1.00;;
47960;SDS011;33721;48.852;9.936;2022-09-13T16:19:02;3.13;;;1.00;;
47960;SDS011;33721;48.852;9.936;2022-09-13T16:21:28;1.20;;;0.80;;
47960;SDS011;33721;48.852;9.936;2022-09-13T16:23:54;1.02;;;0.80;;
47960;SDS011;33721;48.852;9.936;2022-09-13T16:26:20;1.20;;;0.85;;
47960;SDS011;33721;48.852;9.936;2022-09-13T16:28:46;1.52;;;0.88;;
47960;SDS011;33721;48.852;9.936;2022-09-13T16:31:11;4.53;;;0.88;;
47960;SDS011;33721;48.852;9.936;2022-09-13T16:33:39;0.95;;;0.85;;
47960;SDS011;33721;48.852;9.936;2022-09-13T16:36:05;1.95;;;0.70;;
47960;SDS011;33721;48.852;9.936;2022-09-13T16:38:31;1.00;;;0.70;;
47960;SDS011;33721;48.852;9.936;2022-09-13T16:40:56;2.45;;;0.80;;
47960;SDS011;33721;48.852;9.936;2022-09-13T16:43:22;1.30;;;0.93;;
47960;SDS011;33721;48.852;9.936;2022-09-13T16:45:47;1.02;;;0.80;;
47960;SDS011;33721;48.852;9.936;2022-09-13T16:48:15;1.35;;;0.88;;
47960;SDS011;33721;48.852;9.936;2022-09-13T16:50:41;3.00;;;0.80;;
47960;SDS011;33721;48.852;9.936;2022-09-13T16:53:07;4.10;;;1.00;;
47960;SDS011;33721;48.852;9.936;2022-09-13T16:55:33;1.50;;;0.80;;
47960;SDS011;33721;48.852;9.936;2022-09-13T16:57:59;1.70;;;0.88;;
47960;SDS011;33721;48.852;9.936;2022-09-13T17:00:25;3.67;;;0.90;;
47960;SDS011;33721;48.852;9.936;2022-09-13T17:02:53;2.35;;;0.90;;
47960;SDS011;33721;48.852;9.936;2022-09-13T17:05:20;2.38;;;1.48;;
47960;SDS011;33721;48.852;9.936;2022-09-13T17:07:46;2.08;;;1.10;;
47960;SDS011;33721;48.852;9.936;2022-09-13T17:10:12;4.93;;;1.20;;
47960;SDS011;33721;48.852;9.936;2022-09-13T17:12:38;2.47;;;1.10;;
47960;SDS011;33721;48.852;9.936;2022-09-13T17:15:05;1.80;;;1.17;;
47960;SDS011;33721;48.852;9.936;2022-09-13T17:17:32;6.88;;;1.33;;
47960;SDS011;33721;48.852;9.936;2022-09-13T17:20:00;3.42;;;1.20;;
47960;SDS011;33721;48.852;9.936;2022-09-13T17:22:37;1.40;;;1.10;;
47960;SDS011;33721;48.852;9.936;2022-09-13T17:25:03;2.65;;;1.45;;
47960;SDS011;33721;48.852;9.936;2022-09-13T17:27:31;2.28;;;1.30;;
47960;SDS011;33721;48.852;9.936;2022-09-13T17:29:57;7.30;;;1.60;;
47960;SDS011;33721;48.852;9.936;2022-09-13T17:32:23;4.35;;;1.20;;
47960;SDS011;33721;48.852;9.936;2022-09-13T17:34:48;4.50;;;1.40;;
47960;SDS011;33721;48.852;9.936;2022-09-13T17:37:14;5.63;;;1.42;;
47960;SDS011;33721;48.852;9.936;2022-09-13T17:39:40;3.40;;;1.27;;
47960;SDS011;33721;48.852;9.936;2022-09-13T17:42:06;2.25;;;1.40;;
47960;SDS011;33721;48.852;9.936;2022-09-13T17:44:31;3.28;;;1.52;;
47960;SDS011;33721;48.852;9.936;2022-09-13T17:46:57;3.75;;;2.08;;
47960;SDS011;33721;48.852;9.936;2022-09-13T17:49:23;3.90;;;2.33;;
47960;SDS011;33721;48.852;9.936;2022-09-13T17:51:48;8.98;;;6.38;;
47960;SDS011;33721;48.852;9.936;2022-09-13T17:54:14;9.40;;;6.00;;
47960;SDS011;33721;48.852;9.936;2022-09-13T17:56:41;6.70;;;3.97;;
47960;SDS011;33721;48.852;9.936;2022-09-13T18:01:35;4.82;;;2.13;;
47960;SDS011;33721;48.852;9.936;2022-09-13T18:04:02;3.83;;;2.60;;
47960;SDS011;33721;48.852;9.936;2022-09-13T18:06:28;3.08;;;2.00;;
47960;SDS011;33721;48.852;9.936;2022-09-13T18:08:54;4.20;;;2.20;;
47960;SDS011;33721;48.852;9.936;2022-09-13T18:11:20;5.07;;;2.17;;
47960;SDS011;33721;48.852;9.936;2022-09-13T18:13:46;2.40;;;1.60;;
47960;SDS011;33721;48.852;9.936;2022-09-13T18:16:13;3.58;;;1.65;;
47960;SDS011;33721;48.852;9.936;2022-09-13T18:18:44;2.53;;;1.95;;
47960;SDS011;33721;48.852;9.936;2022-09-13T18:21:13;5.60;;;2.10;;
47960;SDS011;33721;48.852;9.936;2022-09-13T18:23:39;4.10;;;2.58;;
47960;SDS011;33721;48.852;9.936;2022-09-13T18:26:06;3.10;;;2.47;;
47960;SDS011;33721;48.852;9.936;2022-09-13T18:28:34;3.67;;;2.40;;
47960;SDS011;33721;48.852;9.936;2022-09-13T18:31:01;3.00;;;2.22;;